BAW183 LROP-LFPG
Flight info
| Callsign | BAW183 |
|---|---|
| Flight time | 2h 43m |
| Altitude | 40000 |
| Route | SOKRU DCT OXDOC DCT ENIMA DCT ERUKO DCT GESBA DCT MOPUG DCT DIMLO DCT DETSA/N0483F390 DCT SAFFA/N0488F400 DCT ELMUR DCT RIPUS L613 HOC/N0483F390 DCT MOROK/N0461F350 DCT PENDU DCT JAVVU DCT GIVRI/N0476F380 DCT TINIL |
| Aircraft | A388/J-SADE2E3FGHIJ3J4J5M1RWXY/LB1D1 |
Departure
| Time | 2026-05-08 09:41 |
|---|---|
| Airport | Bucharest Henri Coandă International Airport (LROP) |
Arrival
| Time | 2026-05-08 12:25 |
|---|---|
| Airport | Charles de Gaulle International Airport (LFPG) |
| Time | Latitude | Longitude | Altitude | Speed | Heading |
|---|---|---|---|---|---|
| 2026-05-08 09:16 | 44.57008 | 26.08134 | 327 ft | 0 kts | 353° |
| 2026-05-08 09:34 | 44.57004 | 26.08135 | 322 ft | 1 kts | 353° |
| 2026-05-08 09:34 | 44.56997 | 26.08136 | 322 ft | 2 kts | 353° |
| 2026-05-08 09:34 | 44.56993 | 26.08137 | 322 ft | 0 kts | 353° |
| 2026-05-08 09:34 | 44.56985 | 26.08138 | 325 ft | 2 kts | 353° |
| 2026-05-08 09:35 | 44.56978 | 26.08139 | 322 ft | 1 kts | 353° |
| 2026-05-08 09:35 | 44.56966 | 26.08141 | 322 ft | 2 kts | 354° |
| 2026-05-08 09:35 | 44.56954 | 26.08143 | 322 ft | 2 kts | 351° |
| 2026-05-08 09:35 | 44.56951 | 26.08144 | 322 ft | 2 kts | 347° |
| 2026-05-08 09:36 | 44.56942 | 26.08151 | 322 ft | 0 kts | 329° |
| 2026-05-08 09:36 | 44.56934 | 26.08191 | 322 ft | 1 kts | 258° |
| 2026-05-08 09:38 | 44.56929 | 26.08166 | 323 ft | 3 kts | 234° |
| 2026-05-08 09:39 | 44.56880 | 26.08128 | 325 ft | 11 kts | 206° |
| 2026-05-08 09:39 | 44.56804 | 26.08060 | 324 ft | 15 kts | 217° |
| 2026-05-08 09:39 | 44.56750 | 26.07958 | 323 ft | 10 kts | 247° |
| 2026-05-08 09:39 | 44.56725 | 26.07854 | 324 ft | 12 kts | 259° |
| 2026-05-08 09:40 | 44.56701 | 26.07727 | 323 ft | 15 kts | 249° |
| 2026-05-08 09:40 | 44.56632 | 26.07664 | 322 ft | 11 kts | 174° |
| 2026-05-08 09:40 | 44.56537 | 26.07678 | 323 ft | 16 kts | 174° |
| 2026-05-08 09:40 | 44.56470 | 26.07768 | 324 ft | 14 kts | 86° |
| 2026-05-08 09:41 | 44.56496 | 26.08153 | 326 ft | 80 kts | 83° |
| 2026-05-08 09:41 | 44.56583 | 26.09269 | 319 ft | 146 kts | 84° |
| 2026-05-08 09:41 | 44.56699 | 26.10858 | 458 ft | 174 kts | 83° |
| 2026-05-08 09:41 | 44.56815 | 26.12546 | 1012 ft | 172 kts | 85° |
| 2026-05-08 09:42 | 44.56926 | 26.14208 | 1657 ft | 171 kts | 85° |
| 2026-05-08 09:42 | 44.57041 | 26.15892 | 2193 ft | 177 kts | 86° |
| 2026-05-08 09:42 | 44.57171 | 26.17681 | 2545 ft | 196 kts | 84° |
| 2026-05-08 09:42 | 44.57338 | 26.19670 | 2879 ft | 217 kts | 84° |
| 2026-05-08 09:43 | 44.57766 | 26.21843 | 3357 ft | 241 kts | 58° |
| 2026-05-08 09:43 | 44.58961 | 26.23542 | 3796 ft | 261 kts | 28° |
| 2026-05-08 09:43 | 44.60729 | 26.24232 | 4602 ft | 268 kts | 359° |
| 2026-05-08 09:43 | 44.62536 | 26.23666 | 5544 ft | 269 kts | 332° |
| 2026-05-08 09:44 | 44.64015 | 26.22052 | 6426 ft | 272 kts | 313° |
| 2026-05-08 09:44 | 44.65405 | 26.20233 | 7323 ft | 275 kts | 321° |
| 2026-05-08 09:44 | 44.67070 | 26.18856 | 8192 ft | 282 kts | 335° |
| 2026-05-08 09:44 | 44.68945 | 26.17999 | 9071 ft | 287 kts | 345° |
| 2026-05-08 09:45 | 44.70928 | 26.17496 | 9920 ft | 293 kts | 351° |
| 2026-05-08 09:45 | 44.72985 | 26.17158 | 10566 ft | 306 kts | 352° |
| 2026-05-08 09:45 | 44.75153 | 26.16671 | 10827 ft | 326 kts | 340° |
| 2026-05-08 09:45 | 44.77161 | 26.15085 | 11191 ft | 338 kts | 316° |
| 2026-05-08 09:46 | 44.78601 | 26.12495 | 11950 ft | 337 kts | 300° |
| 2026-05-08 09:46 | 44.79821 | 26.09656 | 12679 ft | 340 kts | 300° |
| 2026-05-08 09:46 | 44.81065 | 26.06808 | 13456 ft | 343 kts | 300° |
| 2026-05-08 09:46 | 44.82326 | 26.03943 | 14154 ft | 346 kts | 301° |
| 2026-05-08 09:47 | 44.83605 | 26.01044 | 14780 ft | 350 kts | 301° |
| 2026-05-08 09:47 | 44.84895 | 25.98116 | 15416 ft | 354 kts | 300° |
| 2026-05-08 09:47 | 44.86131 | 25.95099 | 16042 ft | 357 kts | 295° |
| 2026-05-08 09:47 | 44.87073 | 25.91854 | 16653 ft | 360 kts | 287° |
| 2026-05-08 09:48 | 44.87772 | 25.88447 | 17258 ft | 363 kts | 285° |
| 2026-05-08 09:48 | 44.88480 | 25.85022 | 17867 ft | 367 kts | 285° |
| 2026-05-08 09:48 | 44.89212 | 25.81553 | 18455 ft | 370 kts | 285° |
| 2026-05-08 09:48 | 44.89948 | 25.78067 | 18993 ft | 372 kts | 285° |
| 2026-05-08 09:49 | 44.90677 | 25.74610 | 19557 ft | 374 kts | 285° |
| 2026-05-08 09:49 | 44.91426 | 25.71037 | 20098 ft | 376 kts | 285° |
| 2026-05-08 09:49 | 44.92167 | 25.67486 | 20636 ft | 378 kts | 285° |
| 2026-05-08 09:49 | 44.92901 | 25.63961 | 21133 ft | 381 kts | 285° |
| 2026-05-08 09:50 | 44.93658 | 25.60315 | 21657 ft | 383 kts | 285° |
| 2026-05-08 09:50 | 44.94398 | 25.56746 | 22157 ft | 386 kts | 285° |
| 2026-05-08 09:50 | 44.95152 | 25.53102 | 22678 ft | 388 kts | 285° |
| 2026-05-08 09:50 | 44.95911 | 25.49435 | 23185 ft | 391 kts | 285° |
| 2026-05-08 09:51 | 44.96673 | 25.45745 | 23704 ft | 392 kts | 285° |
| 2026-05-08 09:51 | 44.97448 | 25.41987 | 24139 ft | 394 kts | 285° |
| 2026-05-08 09:51 | 44.98214 | 25.38255 | 24568 ft | 396 kts | 285° |
| 2026-05-08 09:51 | 44.98982 | 25.34510 | 24997 ft | 398 kts | 285° |
| 2026-05-08 09:52 | 44.99840 | 25.30827 | 25407 ft | 401 kts | 289° |
| 2026-05-08 09:52 | 45.00819 | 25.27122 | 25882 ft | 403 kts | 289° |
| 2026-05-08 09:52 | 45.01793 | 25.23394 | 26355 ft | 406 kts | 288° |
| 2026-05-08 09:52 | 45.02762 | 25.19646 | 26838 ft | 408 kts | 287° |
| 2026-05-08 09:53 | 45.03532 | 25.15779 | 27338 ft | 409 kts | 282° |
| 2026-05-08 09:53 | 45.04196 | 25.11855 | 27824 ft | 412 kts | 282° |
| 2026-05-08 09:53 | 45.04883 | 25.07904 | 28329 ft | 415 kts | 282° |
| 2026-05-08 09:53 | 45.05577 | 25.03929 | 28845 ft | 418 kts | 283° |
| 2026-05-08 09:54 | 45.06273 | 24.99930 | 29366 ft | 421 kts | 282° |
| 2026-05-08 09:54 | 45.06973 | 24.95895 | 29851 ft | 424 kts | 282° |
| 2026-05-08 09:54 | 45.07681 | 24.91832 | 30351 ft | 427 kts | 283° |
| 2026-05-08 09:54 | 45.08611 | 24.87826 | 30830 ft | 430 kts | 290° |
| 2026-05-08 09:55 | 45.09747 | 24.83893 | 31268 ft | 433 kts | 290° |
| 2026-05-08 09:56 | 45.10922 | 24.79750 | 31739 ft | 436 kts | 289° |
| 2026-05-08 09:56 | 45.12046 | 24.75756 | 32206 ft | 438 kts | 289° |
| 2026-05-08 09:56 | 45.13174 | 24.71736 | 32609 ft | 441 kts | 289° |
| 2026-05-08 09:57 | 45.15452 | 24.63612 | 33488 ft | 446 kts | 288° |
| 2026-05-08 09:57 | 45.16597 | 24.59520 | 33939 ft | 448 kts | 288° |
| 2026-05-08 09:57 | 45.17751 | 24.55393 | 34311 ft | 452 kts | 288° |
| 2026-05-08 09:58 | 45.18909 | 24.51239 | 34701 ft | 454 kts | 288° |
| 2026-05-08 09:58 | 45.20068 | 24.47078 | 35185 ft | 453 kts | 288° |
| 2026-05-08 09:58 | 45.21222 | 24.42928 | 35732 ft | 452 kts | 288° |
| 2026-05-08 09:58 | 45.22363 | 24.38821 | 36302 ft | 449 kts | 288° |
| 2026-05-08 09:59 | 45.23504 | 24.34706 | 36884 ft | 447 kts | 288° |
| 2026-05-08 09:59 | 45.24636 | 24.30611 | 37411 ft | 446 kts | 288° |
| 2026-05-08 09:59 | 45.25765 | 24.26524 | 37951 ft | 444 kts | 288° |
| 2026-05-08 09:59 | 45.26872 | 24.22509 | 38523 ft | 441 kts | 289° |
| 2026-05-08 10:00 | 45.27986 | 24.18458 | 38961 ft | 440 kts | 289° |
| 2026-05-08 10:00 | 45.29100 | 24.14399 | 39245 ft | 442 kts | 289° |
| 2026-05-08 10:00 | 45.30215 | 24.10331 | 39540 ft | 443 kts | 289° |
| 2026-05-08 10:00 | 45.31333 | 24.06248 | 39828 ft | 444 kts | 289° |
| 2026-05-08 10:01 | 45.32452 | 24.02154 | 40048 ft | 447 kts | 289° |
| 2026-05-08 10:01 | 45.33584 | 23.98006 | 40060 ft | 454 kts | 289° |
| 2026-05-08 10:01 | 45.35843 | 23.89718 | 40055 ft | 448 kts | 289° |
| 2026-05-08 10:02 | 45.38089 | 23.81431 | 40059 ft | 449 kts | 288° |
| 2026-05-08 10:02 | 45.40333 | 23.73125 | 40060 ft | 450 kts | 288° |
| 2026-05-08 10:03 | 45.42572 | 23.64808 | 40049 ft | 451 kts | 288° |
| 2026-05-08 10:03 | 45.44817 | 23.56447 | 40081 ft | 454 kts | 288° |
| 2026-05-08 10:04 | 45.47071 | 23.48017 | 40099 ft | 456 kts | 288° |
| 2026-05-08 10:04 | 45.49325 | 23.39561 | 40102 ft | 457 kts | 288° |
| 2026-05-08 10:05 | 45.51563 | 23.31135 | 40098 ft | 457 kts | 288° |
| 2026-05-08 10:05 | 45.53803 | 23.22669 | 40089 ft | 455 kts | 288° |
| 2026-05-08 10:06 | 45.56030 | 23.14221 | 40079 ft | 454 kts | 288° |
| 2026-05-08 10:06 | 45.58246 | 23.05787 | 40070 ft | 453 kts | 288° |
| 2026-05-08 10:07 | 45.60450 | 22.97367 | 40068 ft | 452 kts | 288° |
| 2026-05-08 10:07 | 45.62645 | 22.88952 | 40056 ft | 451 kts | 288° |
| 2026-05-08 10:08 | 45.64828 | 22.80553 | 40050 ft | 451 kts | 287° |
| 2026-05-08 10:08 | 45.67001 | 22.72162 | 40049 ft | 450 kts | 287° |
| 2026-05-08 10:09 | 45.69171 | 22.63752 | 40042 ft | 451 kts | 287° |
| 2026-05-08 10:09 | 45.71335 | 22.55334 | 40054 ft | 451 kts | 287° |
| 2026-05-08 10:10 | 45.73495 | 22.46903 | 40065 ft | 452 kts | 287° |
| 2026-05-08 10:10 | 45.75654 | 22.38443 | 40068 ft | 453 kts | 287° |
| 2026-05-08 10:11 | 45.77813 | 22.29952 | 40069 ft | 454 kts | 287° |
| 2026-05-08 10:11 | 45.79955 | 22.21497 | 40067 ft | 455 kts | 287° |
| 2026-05-08 10:12 | 45.82109 | 22.12971 | 40071 ft | 455 kts | 287° |
| 2026-05-08 10:12 | 45.84357 | 22.04480 | 40076 ft | 457 kts | 290° |
| 2026-05-08 10:13 | 45.86982 | 21.96175 | 40063 ft | 457 kts | 291° |
| 2026-05-08 10:13 | 45.89585 | 21.87844 | 40067 ft | 457 kts | 290° |
| 2026-05-08 10:14 | 45.92115 | 21.79468 | 40066 ft | 457 kts | 288° |
| 2026-05-08 10:14 | 45.94127 | 21.70844 | 40068 ft | 455 kts | 285° |
| 2026-05-08 10:15 | 45.96099 | 21.62188 | 40069 ft | 456 kts | 285° |
| 2026-05-08 10:15 | 45.98065 | 21.53525 | 40073 ft | 456 kts | 285° |
| 2026-05-08 10:16 | 46.00021 | 21.44843 | 40073 ft | 457 kts | 285° |
| 2026-05-08 10:16 | 46.01971 | 21.36146 | 40075 ft | 457 kts | 285° |
| 2026-05-08 10:17 | 46.03915 | 21.27439 | 40078 ft | 457 kts | 285° |
| 2026-05-08 10:17 | 46.05857 | 21.18710 | 40077 ft | 458 kts | 285° |
| 2026-05-08 10:18 | 46.07791 | 21.09977 | 40077 ft | 458 kts | 285° |
| 2026-05-08 10:18 | 46.09716 | 21.01248 | 40074 ft | 458 kts | 284° |
| 2026-05-08 10:19 | 46.11637 | 20.92500 | 40072 ft | 458 kts | 284° |
| 2026-05-08 10:20 | 46.14507 | 20.79366 | 40069 ft | 458 kts | 284° |
| 2026-05-08 10:20 | 46.16339 | 20.70638 | 40067 ft | 457 kts | 281° |
| 2026-05-08 10:21 | 46.17627 | 20.61690 | 40068 ft | 456 kts | 278° |
| 2026-05-08 10:21 | 46.18890 | 20.52719 | 40069 ft | 456 kts | 279° |
| 2026-05-08 10:22 | 46.20152 | 20.43738 | 40066 ft | 457 kts | 278° |
| 2026-05-08 10:22 | 46.21399 | 20.34752 | 40074 ft | 457 kts | 278° |
| 2026-05-08 10:23 | 46.22637 | 20.25749 | 40069 ft | 457 kts | 278° |
| 2026-05-08 10:23 | 46.23867 | 20.16745 | 40071 ft | 457 kts | 278° |
| 2026-05-08 10:24 | 46.25091 | 20.07726 | 40069 ft | 457 kts | 278° |
| 2026-05-08 10:24 | 46.26309 | 19.98695 | 40071 ft | 458 kts | 278° |
| 2026-05-08 10:25 | 46.27520 | 19.89665 | 40071 ft | 458 kts | 278° |
| 2026-05-08 10:25 | 46.28724 | 19.80631 | 40069 ft | 458 kts | 278° |
| 2026-05-08 10:26 | 46.29718 | 19.73123 | 40062 ft | 458 kts | 278° |
| 2026-05-08 10:26 | 46.30909 | 19.64081 | 40064 ft | 458 kts | 278° |
| 2026-05-08 10:27 | 46.32094 | 19.55026 | 40068 ft | 458 kts | 278° |
| 2026-05-08 10:27 | 46.33270 | 19.45976 | 40074 ft | 458 kts | 278° |
| 2026-05-08 10:28 | 46.34441 | 19.36908 | 40068 ft | 458 kts | 278° |
| 2026-05-08 10:28 | 46.35605 | 19.27838 | 40072 ft | 458 kts | 277° |
| 2026-05-08 10:29 | 46.36761 | 19.18760 | 40073 ft | 459 kts | 277° |
| 2026-05-08 10:29 | 46.37911 | 19.09676 | 40073 ft | 459 kts | 277° |
| 2026-05-08 10:30 | 46.39054 | 19.00589 | 40069 ft | 459 kts | 277° |
| 2026-05-08 10:30 | 46.40190 | 18.91500 | 40069 ft | 459 kts | 277° |
| 2026-05-08 10:31 | 46.41318 | 18.82403 | 40068 ft | 459 kts | 277° |
| 2026-05-08 10:31 | 46.42441 | 18.73293 | 40072 ft | 459 kts | 277° |
| 2026-05-08 10:32 | 46.43556 | 18.64181 | 40074 ft | 459 kts | 277° |
| 2026-05-08 10:32 | 46.44657 | 18.55124 | 40073 ft | 459 kts | 277° |
| 2026-05-08 10:33 | 46.45765 | 18.45944 | 40072 ft | 459 kts | 277° |
| 2026-05-08 10:33 | 46.46858 | 18.36823 | 40074 ft | 459 kts | 277° |
| 2026-05-08 10:34 | 46.47938 | 18.27746 | 40073 ft | 459 kts | 277° |
| 2026-05-08 10:34 | 46.49017 | 18.18616 | 40076 ft | 459 kts | 276° |
| 2026-05-08 10:35 | 46.50090 | 18.09473 | 40073 ft | 459 kts | 276° |
| 2026-05-08 10:35 | 46.51155 | 18.00327 | 40074 ft | 460 kts | 276° |
| 2026-05-08 10:36 | 46.52212 | 17.91184 | 40075 ft | 460 kts | 276° |
| 2026-05-08 10:36 | 46.53264 | 17.82024 | 40080 ft | 460 kts | 276° |
| 2026-05-08 10:37 | 46.54310 | 17.72849 | 40077 ft | 460 kts | 276° |
| 2026-05-08 10:37 | 46.55348 | 17.63665 | 40080 ft | 461 kts | 276° |
| 2026-05-08 10:38 | 46.56379 | 17.54485 | 40078 ft | 461 kts | 276° |
| 2026-05-08 10:38 | 46.57404 | 17.45288 | 40081 ft | 461 kts | 276° |
| 2026-05-08 10:39 | 46.58420 | 17.36099 | 40076 ft | 461 kts | 276° |
| 2026-05-08 10:39 | 46.59429 | 17.26903 | 40077 ft | 460 kts | 276° |
| 2026-05-08 10:40 | 46.60430 | 17.17712 | 40077 ft | 460 kts | 276° |
| 2026-05-08 10:40 | 46.61417 | 17.08575 | 40076 ft | 460 kts | 276° |
| 2026-05-08 10:41 | 46.62403 | 16.99380 | 40073 ft | 460 kts | 276° |
| 2026-05-08 10:41 | 46.63382 | 16.90180 | 40081 ft | 460 kts | 276° |
| 2026-05-08 10:42 | 46.64354 | 16.80974 | 40076 ft | 460 kts | 275° |
| 2026-05-08 10:42 | 46.65318 | 16.71758 | 40085 ft | 460 kts | 275° |
| 2026-05-08 10:43 | 46.66282 | 16.62481 | 40087 ft | 461 kts | 275° |
| 2026-05-08 10:43 | 46.67227 | 16.53326 | 40085 ft | 461 kts | 275° |
| 2026-05-08 10:44 | 46.68161 | 16.44097 | 40088 ft | 460 kts | 274° |
| 2026-05-08 10:44 | 46.68678 | 16.34874 | 40113 ft | 456 kts | 271° |
| 2026-05-08 10:45 | 46.69097 | 16.25666 | 40110 ft | 455 kts | 272° |
| 2026-05-08 10:45 | 46.69527 | 16.16469 | 40109 ft | 455 kts | 272° |
| 2026-05-08 10:46 | 46.69938 | 16.07297 | 40100 ft | 454 kts | 272° |
| 2026-05-08 10:46 | 46.70337 | 15.98124 | 40094 ft | 453 kts | 271° |
| 2026-05-08 10:47 | 46.70726 | 15.88972 | 40088 ft | 453 kts | 271° |
| 2026-05-08 10:47 | 46.71109 | 15.79821 | 40086 ft | 452 kts | 271° |
| 2026-05-08 10:48 | 46.71481 | 15.70743 | 40082 ft | 452 kts | 271° |
| 2026-05-08 10:48 | 46.71849 | 15.61581 | 40085 ft | 453 kts | 271° |
| 2026-05-08 10:49 | 46.71969 | 15.58552 | 40083 ft | 453 kts | 271° |
| 2026-05-08 10:51 | 46.72473 | 15.45629 | 40083 ft | 453 kts | 271° |
| 2026-05-08 10:52 | 46.72821 | 15.36446 | 40084 ft | 454 kts | 271° |
| 2026-05-08 10:52 | 46.73163 | 15.27260 | 40086 ft | 454 kts | 271° |
| 2026-05-08 10:53 | 46.73498 | 15.18063 | 40082 ft | 454 kts | 271° |
| 2026-05-08 10:53 | 46.73824 | 15.08871 | 40079 ft | 454 kts | 271° |
| 2026-05-08 10:54 | 46.74143 | 14.99675 | 40074 ft | 454 kts | 271° |
| 2026-05-08 10:54 | 46.74454 | 14.90529 | 40088 ft | 455 kts | 271° |
| 2026-05-08 10:55 | 46.74761 | 14.81306 | 40092 ft | 455 kts | 271° |
| 2026-05-08 10:55 | 46.75058 | 14.72086 | 40098 ft | 455 kts | 271° |
| 2026-05-08 10:56 | 46.75349 | 14.62868 | 40096 ft | 455 kts | 270° |
| 2026-05-08 10:56 | 46.75633 | 14.53644 | 40108 ft | 456 kts | 270° |
| 2026-05-08 10:57 | 46.75909 | 14.44415 | 40104 ft | 455 kts | 270° |
| 2026-05-08 10:57 | 46.76309 | 14.30592 | 40102 ft | 455 kts | 270° |
| 2026-05-08 10:58 | 46.76566 | 14.21374 | 40094 ft | 455 kts | 270° |
| 2026-05-08 10:58 | 46.76816 | 14.12158 | 40069 ft | 455 kts | 270° |
| 2026-05-08 10:59 | 46.77058 | 14.02952 | 40073 ft | 455 kts | 270° |
| 2026-05-08 10:59 | 46.77293 | 13.93717 | 40070 ft | 456 kts | 270° |
| 2026-05-08 11:00 | 46.77521 | 13.84520 | 40066 ft | 456 kts | 270° |
| 2026-05-08 11:00 | 46.77742 | 13.75277 | 40059 ft | 457 kts | 270° |
| 2026-05-08 11:01 | 46.77956 | 13.66030 | 40056 ft | 457 kts | 270° |
| 2026-05-08 11:01 | 46.78161 | 13.56787 | 40066 ft | 457 kts | 270° |
| 2026-05-08 11:02 | 46.78456 | 13.42858 | 40050 ft | 457 kts | 270° |
| 2026-05-08 11:03 | 46.78645 | 13.33567 | 40055 ft | 458 kts | 269° |
| 2026-05-08 11:03 | 46.78826 | 13.24269 | 40062 ft | 459 kts | 270° |
| 2026-05-08 11:04 | 46.79002 | 13.14949 | 40056 ft | 459 kts | 269° |
| 2026-05-08 11:04 | 46.79166 | 13.05700 | 40052 ft | 459 kts | 269° |
| 2026-05-08 11:05 | 46.79324 | 12.96387 | 40046 ft | 460 kts | 269° |
| 2026-05-08 11:05 | 46.79474 | 12.87054 | 40058 ft | 461 kts | 269° |
| 2026-05-08 11:06 | 46.79618 | 12.77719 | 40051 ft | 461 kts | 269° |
| 2026-05-08 11:06 | 46.79754 | 12.68366 | 40065 ft | 462 kts | 269° |
| 2026-05-08 11:07 | 46.79883 | 12.58992 | 40084 ft | 462 kts | 269° |
| 2026-05-08 11:07 | 46.80004 | 12.49631 | 40080 ft | 462 kts | 269° |
| 2026-05-08 11:08 | 46.80120 | 12.40279 | 40086 ft | 462 kts | 269° |
| 2026-05-08 11:08 | 46.80230 | 12.30907 | 40099 ft | 462 kts | 269° |
| 2026-05-08 11:09 | 46.80054 | 12.21552 | 40110 ft | 461 kts | 266° |
| 2026-05-08 11:09 | 46.79797 | 12.12206 | 40092 ft | 461 kts | 266° |
| 2026-05-08 11:10 | 46.79547 | 12.02853 | 40084 ft | 461 kts | 266° |
| 2026-05-08 11:10 | 46.79276 | 11.93500 | 40069 ft | 461 kts | 266° |
| 2026-05-08 11:11 | 46.78996 | 11.84212 | 40051 ft | 461 kts | 266° |
| 2026-05-08 11:11 | 46.78707 | 11.74886 | 40027 ft | 461 kts | 266° |
| 2026-05-08 11:12 | 46.78410 | 11.65550 | 40025 ft | 461 kts | 265° |
| 2026-05-08 11:12 | 46.78104 | 11.56186 | 40030 ft | 462 kts | 266° |
| 2026-05-08 11:13 | 46.77794 | 11.46842 | 40032 ft | 462 kts | 266° |
| 2026-05-08 11:13 | 46.77472 | 11.37478 | 40044 ft | 462 kts | 266° |
| 2026-05-08 11:14 | 46.77143 | 11.28118 | 40055 ft | 462 kts | 265° |
| 2026-05-08 11:14 | 46.76808 | 11.18754 | 40056 ft | 462 kts | 265° |
| 2026-05-08 11:15 | 46.76463 | 11.09378 | 40069 ft | 463 kts | 265° |
| 2026-05-08 11:15 | 46.76112 | 10.99992 | 40087 ft | 464 kts | 265° |
| 2026-05-08 11:16 | 46.75751 | 10.90606 | 40093 ft | 464 kts | 265° |
| 2026-05-08 11:16 | 46.75384 | 10.81217 | 40083 ft | 464 kts | 265° |
| 2026-05-08 11:17 | 46.75008 | 10.71832 | 40081 ft | 463 kts | 265° |
| 2026-05-08 11:17 | 46.74626 | 10.62457 | 40070 ft | 463 kts | 265° |
| 2026-05-08 11:18 | 46.74237 | 10.53095 | 40065 ft | 463 kts | 265° |
| 2026-05-08 11:18 | 46.74305 | 10.43720 | 40062 ft | 464 kts | 275° |
| 2026-05-08 11:19 | 46.75606 | 10.34479 | 40066 ft | 467 kts | 285° |
| 2026-05-08 11:19 | 46.77969 | 10.25629 | 40066 ft | 470 kts | 290° |
| 2026-05-08 11:20 | 46.80501 | 10.16847 | 40074 ft | 469 kts | 290° |
| 2026-05-08 11:20 | 46.83018 | 10.08036 | 40083 ft | 471 kts | 290° |
| 2026-05-08 11:21 | 46.85534 | 9.99197 | 40078 ft | 471 kts | 290° |
| 2026-05-08 11:21 | 46.88042 | 9.90355 | 40074 ft | 471 kts | 290° |
| 2026-05-08 11:22 | 46.90549 | 9.81489 | 40068 ft | 472 kts | 290° |
| 2026-05-08 11:22 | 46.93030 | 9.72682 | 40058 ft | 472 kts | 290° |
| 2026-05-08 11:23 | 46.94698 | 9.66748 | 40054 ft | 471 kts | 290° |
| 2026-05-08 11:24 | 46.96775 | 9.59333 | 40049 ft | 471 kts | 290° |
| 2026-05-08 11:25 | 46.99253 | 9.50457 | 40039 ft | 471 kts | 290° |
| 2026-05-08 11:25 | 47.01706 | 9.41642 | 40031 ft | 470 kts | 290° |
| 2026-05-08 11:26 | 47.04167 | 9.32761 | 40036 ft | 470 kts | 290° |
| 2026-05-08 11:26 | 47.06620 | 9.23879 | 40037 ft | 470 kts | 289° |
| 2026-05-08 11:27 | 47.09068 | 9.14982 | 40035 ft | 470 kts | 289° |
| 2026-05-08 11:27 | 47.11506 | 9.06083 | 40037 ft | 470 kts | 289° |
| 2026-05-08 11:28 | 47.13939 | 8.97173 | 40041 ft | 471 kts | 289° |
| 2026-05-08 11:28 | 47.16366 | 8.88237 | 40045 ft | 471 kts | 289° |
| 2026-05-08 11:29 | 47.18657 | 8.79241 | 40050 ft | 471 kts | 288° |
| 2026-05-08 11:29 | 47.20916 | 8.70268 | 40051 ft | 471 kts | 288° |
| 2026-05-08 11:30 | 47.23194 | 8.61261 | 40052 ft | 472 kts | 288° |
| 2026-05-08 11:30 | 47.25473 | 8.52229 | 40054 ft | 471 kts | 288° |
| 2026-05-08 11:31 | 47.27751 | 8.43188 | 40056 ft | 472 kts | 288° |
| 2026-05-08 11:31 | 47.30031 | 8.34119 | 40058 ft | 472 kts | 288° |
| 2026-05-08 11:32 | 47.32282 | 8.25106 | 40058 ft | 472 kts | 288° |
| 2026-05-08 11:32 | 47.34539 | 8.16008 | 40055 ft | 472 kts | 288° |
| 2026-05-08 11:33 | 47.36791 | 8.06901 | 40051 ft | 472 kts | 288° |
| 2026-05-08 11:33 | 47.39035 | 7.97795 | 40048 ft | 472 kts | 288° |
| 2026-05-08 11:34 | 47.41271 | 7.88678 | 40044 ft | 472 kts | 288° |
| 2026-05-08 11:34 | 47.43499 | 7.79559 | 40040 ft | 472 kts | 288° |
| 2026-05-08 11:35 | 47.45330 | 7.70282 | 40042 ft | 470 kts | 279° |
| 2026-05-08 11:35 | 47.46013 | 7.60718 | 40044 ft | 468 kts | 269° |
| 2026-05-08 11:36 | 47.45615 | 7.51148 | 40042 ft | 467 kts | 263° |
| 2026-05-08 11:36 | 47.44994 | 7.41583 | 40044 ft | 467 kts | 264° |
| 2026-05-08 11:37 | 47.44366 | 7.32041 | 40042 ft | 467 kts | 263° |
| 2026-05-08 11:37 | 47.43716 | 7.22482 | 40043 ft | 467 kts | 263° |
| 2026-05-08 11:38 | 47.43057 | 7.12950 | 40044 ft | 467 kts | 263° |
| 2026-05-08 11:38 | 47.42390 | 7.03412 | 40047 ft | 468 kts | 263° |
| 2026-05-08 11:39 | 47.41720 | 6.93959 | 40046 ft | 468 kts | 263° |
| 2026-05-08 11:39 | 47.41034 | 6.84406 | 40052 ft | 468 kts | 263° |
| 2026-05-08 11:40 | 47.40342 | 6.74850 | 40053 ft | 469 kts | 263° |
| 2026-05-08 11:40 | 47.39641 | 6.65288 | 40055 ft | 469 kts | 263° |
| 2026-05-08 11:41 | 47.39048 | 6.57276 | 40051 ft | 469 kts | 263° |
| 2026-05-08 11:41 | 47.38895 | 6.55234 | 40052 ft | 469 kts | 263° |
| 2026-05-08 11:42 | 47.38177 | 6.45666 | 40050 ft | 469 kts | 263° |
| 2026-05-08 11:42 | 47.37451 | 6.36114 | 40046 ft | 468 kts | 263° |
| 2026-05-08 11:43 | 47.36717 | 6.26571 | 40042 ft | 468 kts | 263° |
| 2026-05-08 11:43 | 47.35977 | 6.17032 | 40041 ft | 468 kts | 263° |
| 2026-05-08 11:44 | 47.35229 | 6.07512 | 40041 ft | 468 kts | 263° |
| 2026-05-08 11:44 | 47.34468 | 5.97988 | 40041 ft | 467 kts | 262° |
| 2026-05-08 11:45 | 47.33674 | 5.88483 | 40038 ft | 467 kts | 262° |
| 2026-05-08 11:45 | 47.32879 | 5.78980 | 40038 ft | 467 kts | 263° |
| 2026-05-08 11:46 | 47.32114 | 5.69473 | 40034 ft | 467 kts | 263° |
| 2026-05-08 11:46 | 47.31342 | 5.59974 | 40033 ft | 467 kts | 263° |
| 2026-05-08 11:47 | 47.30657 | 5.50463 | 40034 ft | 467 kts | 269° |
| 2026-05-08 11:47 | 47.31609 | 5.41017 | 39902 ft | 469 kts | 287° |
| 2026-05-08 11:47 | 47.32848 | 5.36637 | 39401 ft | 471 kts | 296° |
| 2026-05-08 11:48 | 47.34633 | 5.32493 | 38665 ft | 477 kts | 306° |
| 2026-05-08 11:48 | 47.36843 | 5.28900 | 37716 ft | 482 kts | 315° |
| 2026-05-08 11:48 | 47.39478 | 5.25834 | 36676 ft | 485 kts | 325° |
| 2026-05-08 11:48 | 47.42404 | 5.23375 | 35654 ft | 483 kts | 329° |
| 2026-05-08 11:49 | 47.45347 | 5.21003 | 34641 ft | 481 kts | 329° |
| 2026-05-08 11:49 | 47.48233 | 5.18650 | 33597 ft | 478 kts | 328° |
| 2026-05-08 11:49 | 47.51138 | 5.16266 | 32748 ft | 470 kts | 328° |
| 2026-05-08 11:49 | 47.53953 | 5.13950 | 32407 ft | 458 kts | 328° |
| 2026-05-08 11:50 | 47.56707 | 5.11682 | 31977 ft | 449 kts | 328° |
| 2026-05-08 11:50 | 47.59314 | 5.09211 | 31435 ft | 442 kts | 321° |
| 2026-05-08 11:50 | 47.61688 | 5.06371 | 30890 ft | 435 kts | 316° |
| 2026-05-08 11:50 | 47.63974 | 5.03465 | 30350 ft | 431 kts | 317° |
| 2026-05-08 11:51 | 47.66254 | 5.00612 | 29762 ft | 427 kts | 317° |
| 2026-05-08 11:51 | 47.68511 | 4.97795 | 29240 ft | 422 kts | 317° |
| 2026-05-08 11:51 | 47.70743 | 4.95003 | 28703 ft | 416 kts | 317° |
| 2026-05-08 11:51 | 47.72935 | 4.92252 | 28180 ft | 411 kts | 317° |
| 2026-05-08 11:52 | 47.75101 | 4.89524 | 27739 ft | 406 kts | 316° |
| 2026-05-08 11:52 | 47.77262 | 4.86784 | 27505 ft | 415 kts | 316° |
| 2026-05-08 11:52 | 47.79468 | 4.83980 | 27239 ft | 419 kts | 316° |
| 2026-05-08 11:52 | 47.81681 | 4.81165 | 26916 ft | 417 kts | 316° |
| 2026-05-08 11:53 | 47.83882 | 4.78369 | 26609 ft | 415 kts | 316° |
| 2026-05-08 11:53 | 47.86074 | 4.75582 | 26297 ft | 414 kts | 316° |
| 2026-05-08 11:53 | 47.88261 | 4.72797 | 25992 ft | 413 kts | 316° |
| 2026-05-08 11:53 | 47.90439 | 4.70020 | 25679 ft | 412 kts | 316° |
| 2026-05-08 11:54 | 47.92613 | 4.67245 | 25390 ft | 410 kts | 316° |
| 2026-05-08 11:54 | 47.94775 | 4.64480 | 25091 ft | 409 kts | 316° |
| 2026-05-08 11:54 | 47.96936 | 4.61714 | 24790 ft | 408 kts | 316° |
| 2026-05-08 11:54 | 47.99088 | 4.58957 | 24490 ft | 407 kts | 316° |
| 2026-05-08 11:55 | 48.01229 | 4.56212 | 24188 ft | 406 kts | 316° |
| 2026-05-08 11:55 | 48.03369 | 4.53464 | 23892 ft | 405 kts | 316° |
| 2026-05-08 11:55 | 48.05500 | 4.50723 | 23580 ft | 404 kts | 316° |
| 2026-05-08 11:55 | 48.07624 | 4.47988 | 23271 ft | 402 kts | 316° |
| 2026-05-08 11:56 | 48.09708 | 4.45303 | 22975 ft | 400 kts | 316° |
| 2026-05-08 11:56 | 48.11807 | 4.42596 | 22692 ft | 398 kts | 316° |
| 2026-05-08 11:56 | 48.13897 | 4.39896 | 22403 ft | 396 kts | 316° |
| 2026-05-08 11:56 | 48.15978 | 4.37207 | 22101 ft | 395 kts | 316° |
| 2026-05-08 11:57 | 48.18054 | 4.34518 | 21808 ft | 393 kts | 316° |
| 2026-05-08 11:57 | 48.20120 | 4.31843 | 21525 ft | 391 kts | 316° |
| 2026-05-08 11:57 | 48.22174 | 4.29179 | 21241 ft | 390 kts | 316° |
| 2026-05-08 11:57 | 48.24220 | 4.26522 | 20952 ft | 389 kts | 316° |
| 2026-05-08 11:58 | 48.26209 | 4.23803 | 20658 ft | 385 kts | 311° |
| 2026-05-08 11:58 | 48.27952 | 4.20776 | 20366 ft | 382 kts | 306° |
| 2026-05-08 11:58 | 48.29627 | 4.17679 | 20101 ft | 381 kts | 307° |
| 2026-05-08 11:59 | 48.32990 | 4.11568 | 19540 ft | 378 kts | 307° |
| 2026-05-08 11:59 | 48.34664 | 4.08523 | 19265 ft | 377 kts | 307° |
| 2026-05-08 11:59 | 48.36331 | 4.05484 | 18980 ft | 376 kts | 307° |
| 2026-05-08 11:59 | 48.37988 | 4.02457 | 18713 ft | 375 kts | 307° |
| 2026-05-08 12:00 | 48.39642 | 3.99429 | 18535 ft | 374 kts | 307° |
| 2026-05-08 12:00 | 48.41290 | 3.96407 | 18349 ft | 373 kts | 307° |
| 2026-05-08 12:00 | 48.42935 | 3.93390 | 18079 ft | 372 kts | 307° |
| 2026-05-08 12:00 | 48.44573 | 3.90385 | 17804 ft | 370 kts | 307° |
| 2026-05-08 12:01 | 48.46203 | 3.87390 | 17534 ft | 369 kts | 307° |
| 2026-05-08 12:01 | 48.47826 | 3.84395 | 17277 ft | 368 kts | 307° |
| 2026-05-08 12:01 | 48.49444 | 3.81411 | 17021 ft | 367 kts | 307° |
| 2026-05-08 12:01 | 48.51055 | 3.78441 | 16762 ft | 366 kts | 307° |
| 2026-05-08 12:02 | 48.52662 | 3.75474 | 16441 ft | 364 kts | 307° |
| 2026-05-08 12:02 | 48.54203 | 3.72508 | 15946 ft | 363 kts | 302° |
| 2026-05-08 12:02 | 48.55570 | 3.69288 | 15720 ft | 358 kts | 300° |
| 2026-05-08 12:02 | 48.56922 | 3.66127 | 15551 ft | 359 kts | 301° |
| 2026-05-08 12:03 | 48.58265 | 3.63014 | 15316 ft | 358 kts | 301° |
| 2026-05-08 12:03 | 48.59624 | 3.59865 | 15071 ft | 357 kts | 301° |
| 2026-05-08 12:03 | 48.60974 | 3.56726 | 14868 ft | 356 kts | 301° |
| 2026-05-08 12:03 | 48.62303 | 3.53627 | 14635 ft | 355 kts | 301° |
| 2026-05-08 12:04 | 48.63601 | 3.50598 | 14416 ft | 354 kts | 301° |
| 2026-05-08 12:04 | 48.64973 | 3.47392 | 14193 ft | 353 kts | 301° |
| 2026-05-08 12:04 | 48.66295 | 3.44302 | 13961 ft | 351 kts | 301° |
| 2026-05-08 12:04 | 48.67585 | 3.41277 | 13726 ft | 350 kts | 301° |
| 2026-05-08 12:05 | 48.68891 | 3.38211 | 13503 ft | 349 kts | 301° |
| 2026-05-08 12:05 | 48.70198 | 3.35139 | 13280 ft | 349 kts | 301° |
| 2026-05-08 12:05 | 48.71505 | 3.32064 | 13078 ft | 347 kts | 301° |
| 2026-05-08 12:05 | 48.72807 | 3.29000 | 13062 ft | 347 kts | 301° |
| 2026-05-08 12:06 | 48.74108 | 3.25936 | 13066 ft | 348 kts | 301° |
| 2026-05-08 12:06 | 48.75406 | 3.22872 | 13063 ft | 348 kts | 301° |
| 2026-05-08 12:06 | 48.76713 | 3.19782 | 13066 ft | 347 kts | 301° |
| 2026-05-08 12:06 | 48.78011 | 3.16715 | 13070 ft | 347 kts | 301° |
| 2026-05-08 12:07 | 48.79313 | 3.13635 | 13069 ft | 347 kts | 301° |
| 2026-05-08 12:07 | 48.80602 | 3.10581 | 13067 ft | 347 kts | 301° |
| 2026-05-08 12:07 | 48.81858 | 3.07598 | 13064 ft | 347 kts | 301° |
| 2026-05-08 12:07 | 48.83184 | 3.04447 | 13067 ft | 347 kts | 301° |
| 2026-05-08 12:08 | 48.84508 | 3.01413 | 13064 ft | 347 kts | 305° |
| 2026-05-08 12:08 | 48.86101 | 2.98647 | 13065 ft | 348 kts | 311° |
| 2026-05-08 12:08 | 48.87752 | 2.95963 | 13064 ft | 349 kts | 311° |
| 2026-05-08 12:08 | 48.89367 | 2.93291 | 13066 ft | 349 kts | 310° |
| 2026-05-08 12:09 | 48.90994 | 2.90579 | 13068 ft | 349 kts | 310° |
| 2026-05-08 12:09 | 48.92537 | 2.87851 | 12851 ft | 346 kts | 302° |
| 2026-05-08 12:09 | 48.93521 | 2.84556 | 12249 ft | 347 kts | 282° |
| 2026-05-08 12:09 | 48.93705 | 2.80937 | 11330 ft | 351 kts | 265° |
| 2026-05-08 12:10 | 48.93454 | 2.77275 | 10694 ft | 350 kts | 263° |
| 2026-05-08 12:10 | 48.93199 | 2.73701 | 10519 ft | 334 kts | 263° |
| 2026-05-08 12:10 | 48.92976 | 2.70268 | 10378 ft | 319 kts | 264° |
| 2026-05-08 12:10 | 48.92842 | 2.68045 | 10291 ft | 310 kts | 264° |
| 2026-05-08 12:11 | 48.92608 | 2.63910 | 10145 ft | 293 kts | 265° |
| 2026-05-08 12:11 | 48.92450 | 2.60926 | 9919 ft | 285 kts | 264° |
| 2026-05-08 12:11 | 48.92283 | 2.57926 | 9456 ft | 284 kts | 265° |
| 2026-05-08 12:11 | 48.92123 | 2.54953 | 8832 ft | 283 kts | 265° |
| 2026-05-08 12:12 | 48.91969 | 2.52081 | 8272 ft | 282 kts | 265° |
| 2026-05-08 12:12 | 48.91814 | 2.49229 | 7730 ft | 281 kts | 265° |
| 2026-05-08 12:12 | 48.91705 | 2.47236 | 7373 ft | 280 kts | 265° |
| 2026-05-08 12:12 | 48.91547 | 2.44388 | 6915 ft | 277 kts | 265° |
| 2026-05-08 12:13 | 48.91335 | 2.40584 | 6776 ft | 273 kts | 265° |
| 2026-05-08 12:13 | 48.91229 | 2.38685 | 6572 ft | 275 kts | 265° |
| 2026-05-08 12:13 | 48.91020 | 2.34974 | 6390 ft | 275 kts | 265° |
| 2026-05-08 12:13 | 48.90912 | 2.33043 | 6344 ft | 268 kts | 265° |
| 2026-05-08 12:14 | 48.90757 | 2.30302 | 6250 ft | 253 kts | 265° |
| 2026-05-08 12:14 | 48.90613 | 2.27764 | 6107 ft | 240 kts | 265° |
| 2026-05-08 12:14 | 48.90474 | 2.25328 | 6008 ft | 229 kts | 265° |
| 2026-05-08 12:14 | 48.90342 | 2.23012 | 5921 ft | 220 kts | 265° |
| 2026-05-08 12:15 | 48.90211 | 2.20739 | 5698 ft | 215 kts | 265° |
| 2026-05-08 12:15 | 48.90083 | 2.18542 | 5219 ft | 210 kts | 265° |
| 2026-05-08 12:15 | 48.89957 | 2.16348 | 5015 ft | 215 kts | 265° |
| 2026-05-08 12:15 | 48.89826 | 2.14084 | 4973 ft | 217 kts | 265° |
| 2026-05-08 12:16 | 48.89693 | 2.11818 | 4969 ft | 218 kts | 265° |
| 2026-05-08 12:16 | 48.89556 | 2.09569 | 4981 ft | 219 kts | 265° |
| 2026-05-08 12:16 | 48.89739 | 2.07331 | 4976 ft | 218 kts | 295° |
| 2026-05-08 12:16 | 48.90685 | 2.05621 | 4972 ft | 216 kts | 329° |
| 2026-05-08 12:17 | 48.92092 | 2.05020 | 4977 ft | 213 kts | 4° |
| 2026-05-08 12:17 | 48.93439 | 2.05708 | 4976 ft | 211 kts | 37° |
| 2026-05-08 12:17 | 48.94350 | 2.07390 | 4992 ft | 212 kts | 62° |
| 2026-05-08 12:17 | 48.95061 | 2.09309 | 4970 ft | 211 kts | 60° |
| 2026-05-08 12:18 | 48.95806 | 2.11194 | 4970 ft | 211 kts | 59° |
| 2026-05-08 12:18 | 48.96561 | 2.13090 | 4973 ft | 211 kts | 62° |
| 2026-05-08 12:18 | 48.97024 | 2.15141 | 4937 ft | 201 kts | 79° |
| 2026-05-08 12:18 | 48.97187 | 2.17144 | 4774 ft | 196 kts | 85° |
| 2026-05-08 12:19 | 48.97281 | 2.19068 | 4760 ft | 196 kts | 85° |
| 2026-05-08 12:19 | 48.97397 | 2.21192 | 4755 ft | 200 kts | 85° |
| 2026-05-08 12:19 | 48.97507 | 2.23267 | 4580 ft | 197 kts | 85° |
| 2026-05-08 12:19 | 48.97617 | 2.25308 | 4358 ft | 197 kts | 85° |
| 2026-05-08 12:20 | 48.97728 | 2.27366 | 4105 ft | 197 kts | 85° |
| 2026-05-08 12:20 | 48.97838 | 2.29437 | 3849 ft | 197 kts | 85° |
| 2026-05-08 12:20 | 48.97949 | 2.31484 | 3589 ft | 196 kts | 85° |
| 2026-05-08 12:20 | 48.98054 | 2.33488 | 3344 ft | 183 kts | 85° |
| 2026-05-08 12:21 | 48.98158 | 2.35322 | 3094 ft | 167 kts | 85° |
| 2026-05-08 12:21 | 48.98241 | 2.36943 | 2896 ft | 153 kts | 85° |
| 2026-05-08 12:21 | 48.98321 | 2.38516 | 2700 ft | 145 kts | 85° |
| 2026-05-08 12:21 | 48.98405 | 2.39987 | 2505 ft | 137 kts | 84° |
| 2026-05-08 12:22 | 48.98477 | 2.41376 | 2338 ft | 131 kts | 85° |
| 2026-05-08 12:22 | 48.98551 | 2.42728 | 2152 ft | 131 kts | 85° |
| 2026-05-08 12:22 | 48.98621 | 2.44126 | 1971 ft | 133 kts | 84° |
| 2026-05-08 12:22 | 48.98699 | 2.45517 | 1803 ft | 134 kts | 86° |
| 2026-05-08 12:23 | 48.98772 | 2.46919 | 1620 ft | 134 kts | 84° |
| 2026-05-08 12:23 | 48.98851 | 2.48340 | 1439 ft | 134 kts | 86° |
| 2026-05-08 12:23 | 48.98927 | 2.49752 | 1279 ft | 135 kts | 84° |
| 2026-05-08 12:23 | 48.98999 | 2.51170 | 1092 ft | 136 kts | 85° |
| 2026-05-08 12:24 | 48.99074 | 2.52592 | 862 ft | 134 kts | 86° |
| 2026-05-08 12:24 | 48.99150 | 2.54003 | 689 ft | 134 kts | 86° |
| 2026-05-08 12:24 | 48.99221 | 2.55348 | 519 ft | 132 kts | 86° |
| 2026-05-08 12:24 | 48.99296 | 2.56730 | 398 ft | 132 kts | 87° |
| 2026-05-08 12:25 | 48.99357 | 2.57936 | 361 ft | 83 kts | 85° |
| 2026-05-08 12:25 | 48.99386 | 2.58455 | 363 ft | 37 kts | 85° |
| 2026-05-08 12:25 | 48.99410 | 2.58867 | 362 ft | 39 kts | 85° |
| 2026-05-08 12:25 | 48.99459 | 2.59224 | 362 ft | 32 kts | 70° |
| 2026-05-08 12:26 | 48.99531 | 2.59476 | 363 ft | 22 kts | 66° |
| 2026-05-08 12:26 | 48.99599 | 2.59659 | 367 ft | 16 kts | 40° |
| 2026-05-08 12:26 | 48.99652 | 2.59691 | 366 ft | 0 kts | 2° |
| 2026-05-08 12:27 | 48.99673 | 2.59692 | 365 ft | 13 kts | 1° |
| 2026-05-08 12:27 | 48.99775 | 2.59685 | 360 ft | 17 kts | 354° |
| 2026-05-08 12:27 | 48.99907 | 2.59665 | 362 ft | 19 kts | 354° |
| 2026-05-08 12:28 | 48.99997 | 2.59647 | 363 ft | 14 kts | 353° |
| 2026-05-08 12:28 | 49.00054 | 2.59630 | 364 ft | 8 kts | 327° |
| 2026-05-08 12:28 | 49.00080 | 2.59550 | 363 ft | 11 kts | 269° |
| 2026-05-08 12:28 | 49.00079 | 2.59400 | 364 ft | 17 kts | 269° |
| 2026-05-08 12:29 | 49.00073 | 2.59287 | 364 ft | 10 kts | 263° |
| 2026-05-08 12:29 | 49.00061 | 2.59147 | 366 ft | 16 kts | 262° |
| 2026-05-08 12:29 | 49.00045 | 2.58974 | 365 ft | 19 kts | 261° |
| 2026-05-08 12:29 | 49.00037 | 2.58779 | 359 ft | 18 kts | 266° |
| 2026-05-08 12:30 | 49.00032 | 2.58654 | 359 ft | 11 kts | 266° |
| 2026-05-08 12:30 | 49.00023 | 2.58507 | 360 ft | 17 kts | 264° |
| 2026-05-08 12:30 | 49.00012 | 2.58333 | 364 ft | 17 kts | 264° |
| 2026-05-08 12:30 | 49.00005 | 2.58131 | 359 ft | 21 kts | 269° |
| 2026-05-08 12:31 | 48.99995 | 2.57960 | 365 ft | 10 kts | 264° |
| 2026-05-08 12:31 | 48.99988 | 2.57825 | 367 ft | 16 kts | 265° |
| 2026-05-08 12:31 | 48.99977 | 2.57644 | 367 ft | 15 kts | 265° |
| 2026-05-08 12:31 | 48.99968 | 2.57465 | 359 ft | 19 kts | 265° |
| 2026-05-08 12:32 | 48.99959 | 2.57313 | 366 ft | 16 kts | 265° |
| 2026-05-08 12:32 | 48.99949 | 2.57122 | 364 ft | 20 kts | 267° |
| 2026-05-08 12:32 | 49.00024 | 2.56985 | 361 ft | 19 kts | 352° |
| 2026-05-08 12:32 | 49.00114 | 2.56991 | 358 ft | 12 kts | 33° |
| 2026-05-08 12:33 | 49.00190 | 2.57022 | 366 ft | 5 kts | 346° |
| 2026-05-08 12:33 | 49.00191 | 2.57021 | 366 ft | 0 kts | 346° |